sensor_id;sensor_type;location;lat;lon;timestamp;P1;durP1;ratioP1;P2;durP2;ratioP2
81176;SDS011;70786;48.272;14.200;2023-08-07T00:01:07;0.70;;;0.35;;
81176;SDS011;70786;48.272;14.200;2023-08-07T00:03:33;1.73;;;0.60;;
81176;SDS011;70786;48.272;14.200;2023-08-07T00:06:01;2.03;;;0.60;;
81176;SDS011;70786;48.272;14.200;2023-08-07T00:08:27;1.17;;;0.60;;
81176;SDS011;70786;48.272;14.200;2023-08-07T00:10:53;2.05;;;0.60;;
81176;SDS011;70786;48.272;14.200;2023-08-07T00:13:19;0.80;;;0.47;;
81176;SDS011;70786;48.272;14.200;2023-08-07T00:15:45;0.43;;;0.30;;
81176;SDS011;70786;48.272;14.200;2023-08-07T00:18:11;2.72;;;0.50;;
81176;SDS011;70786;48.272;14.200;2023-08-07T00:20:37;1.23;;;0.50;;
81176;SDS011;70786;48.272;14.200;2023-08-07T00:23:03;0.93;;;0.40;;
81176;SDS011;70786;48.272;14.200;2023-08-07T00:25:29;1.98;;;0.55;;
81176;SDS011;70786;48.272;14.200;2023-08-07T00:27:55;0.80;;;0.40;;
81176;SDS011;70786;48.272;14.200;2023-08-07T00:30:21;0.68;;;0.40;;
81176;SDS011;70786;48.272;14.200;2023-08-07T00:32:47;0.88;;;0.47;;
81176;SDS011;70786;48.272;14.200;2023-08-07T00:35:13;1.13;;;0.70;;
81176;SDS011;70786;48.272;14.200;2023-08-07T00:37:39;0.80;;;0.50;;
81176;SDS011;70786;48.272;14.200;2023-08-07T00:40:05;1.15;;;0.25;;
81176;SDS011;70786;48.272;14.200;2023-08-07T00:42:31;0.82;;;0.60;;
81176;SDS011;70786;48.272;14.200;2023-08-07T00:44:57;1.10;;;0.68;;
81176;SDS011;70786;48.272;14.200;2023-08-07T00:47:23;0.70;;;0.35;;
81176;SDS011;70786;48.272;14.200;2023-08-07T00:49:49;0.95;;;0.50;;
81176;SDS011;70786;48.272;14.200;2023-08-07T00:52:15;0.70;;;0.40;;
81176;SDS011;70786;48.272;14.200;2023-08-07T00:54:41;1.20;;;0.47;;
81176;SDS011;70786;48.272;14.200;2023-08-07T00:57:11;0.40;;;0.17;;
81176;SDS011;70786;48.272;14.200;2023-08-07T00:59:40;1.90;;;0.57;;
81176;SDS011;70786;48.272;14.200;2023-08-07T01:02:07;0.60;;;0.35;;
81176;SDS011;70786;48.272;14.200;2023-08-07T01:04:34;1.20;;;0.60;;
81176;SDS011;70786;48.272;14.200;2023-08-07T01:07:00;0.50;;;0.40;;
81176;SDS011;70786;48.272;14.200;2023-08-07T01:09:26;1.33;;;0.50;;
81176;SDS011;70786;48.272;14.200;2023-08-07T01:11:55;0.73;;;0.30;;
81176;SDS011;70786;48.272;14.200;2023-08-07T01:17:11;0.63;;;0.40;;
81176;SDS011;70786;48.272;14.200;2023-08-07T01:19:40;0.70;;;0.47;;
81176;SDS011;70786;48.272;14.200;2023-08-07T01:22:14;1.40;;;0.50;;
81176;SDS011;70786;48.272;14.200;2023-08-07T01:24:44;0.52;;;0.40;;
81176;SDS011;70786;48.272;14.200;2023-08-07T01:33:01;1.35;;;0.50;;
81176;SDS011;70786;48.272;14.200;2023-08-07T01:35:49;1.27;;;0.40;;
81176;SDS011;70786;48.272;14.200;2023-08-07T01:38:18;1.45;;;0.60;;
81176;SDS011;70786;48.272;14.200;2023-08-07T01:40:49;0.95;;;0.40;;
81176;SDS011;70786;48.272;14.200;2023-08-07T01:43:17;0.88;;;0.38;;
81176;SDS011;70786;48.272;14.200;2023-08-07T01:45:44;0.90;;;0.40;;
81176;SDS011;70786;48.272;14.200;2023-08-07T01:48:10;1.30;;;0.30;;
81176;SDS011;70786;48.272;14.200;2023-08-07T01:50:37;0.77;;;0.40;;
81176;SDS011;70786;48.272;14.200;2023-08-07T01:53:04;2.70;;;0.40;;
81176;SDS011;70786;48.272;14.200;2023-08-07T01:55:31;1.08;;;0.40;;
81176;SDS011;70786;48.272;14.200;2023-08-07T01:57:57;0.32;;;0.20;;
81176;SDS011;70786;48.272;14.200;2023-08-07T02:00:23;0.98;;;0.50;;
81176;SDS011;70786;48.272;14.200;2023-08-07T02:02:51;1.23;;;0.52;;
81176;SDS011;70786;48.272;14.200;2023-08-07T02:05:18;0.77;;;0.43;;
81176;SDS011;70786;48.272;14.200;2023-08-07T02:07:44;0.63;;;0.25;;
81176;SDS011;70786;48.272;14.200;2023-08-07T02:10:10;0.75;;;0.40;;
81176;SDS011;70786;48.272;14.200;2023-08-07T02:12:45;0.60;;;0.32;;
81176;SDS011;70786;48.272;14.200;2023-08-07T02:15:18;0.77;;;0.55;;
81176;SDS011;70786;48.272;14.200;2023-08-07T02:17:45;0.88;;;0.40;;
81176;SDS011;70786;48.272;14.200;2023-08-07T02:20:11;1.35;;;0.40;;
81176;SDS011;70786;48.272;14.200;2023-08-07T02:22:42;1.02;;;0.32;;
81176;SDS011;70786;48.272;14.200;2023-08-07T02:25:17;1.45;;;0.40;;
81176;SDS011;70786;48.272;14.200;2023-08-07T02:27:43;0.90;;;0.30;;
81176;SDS011;70786;48.272;14.200;2023-08-07T02:30:10;0.75;;;0.50;;
81176;SDS011;70786;48.272;14.200;2023-08-07T02:32:45;1.55;;;0.38;;
81176;SDS011;70786;48.272;14.200;2023-08-07T02:35:12;0.73;;;0.50;;
81176;SDS011;70786;48.272;14.200;2023-08-07T02:37:43;0.43;;;0.30;;
81176;SDS011;70786;48.272;14.200;2023-08-07T02:40:15;0.90;;;0.40;;
81176;SDS011;70786;48.272;14.200;2023-08-07T02:42:43;0.50;;;0.40;;
81176;SDS011;70786;48.272;14.200;2023-08-07T02:45:22;0.75;;;0.38;;
81176;SDS011;70786;48.272;14.200;2023-08-07T02:47:48;0.60;;;0.30;;
81176;SDS011;70786;48.272;14.200;2023-08-07T02:50:17;0.85;;;0.40;;
81176;SDS011;70786;48.272;14.200;2023-08-07T02:52:43;0.68;;;0.40;;
81176;SDS011;70786;48.272;14.200;2023-08-07T02:55:14;0.77;;;0.30;;
81176;SDS011;70786;48.272;14.200;2023-08-07T02:57:43;0.40;;;0.20;;
81176;SDS011;70786;48.272;14.200;2023-08-07T03:00:13;0.93;;;0.30;;
81176;SDS011;70786;48.272;14.200;2023-08-07T03:02:52;0.60;;;0.30;;
81176;SDS011;70786;48.272;14.200;2023-08-07T03:05:22;0.40;;;0.25;;
81176;SDS011;70786;48.272;14.200;2023-08-07T03:07:49;1.38;;;0.40;;
81176;SDS011;70786;48.272;14.200;2023-08-07T03:10:17;0.73;;;0.40;;
81176;SDS011;70786;48.272;14.200;2023-08-07T03:12:47;0.77;;;0.40;;
81176;SDS011;70786;48.272;14.200;2023-08-07T03:15:16;0.30;;;0.20;;
81176;SDS011;70786;48.272;14.200;2023-08-07T03:17:45;0.40;;;0.22;;
81176;SDS011;70786;48.272;14.200;2023-08-07T03:20:12;0.45;;;0.28;;
81176;SDS011;70786;48.272;14.200;2023-08-07T03:22:38;0.30;;;0.20;;
81176;SDS011;70786;48.272;14.200;2023-08-07T03:25:05;0.80;;;0.30;;
81176;SDS011;70786;48.272;14.200;2023-08-07T03:27:32;0.70;;;0.50;;
81176;SDS011;70786;48.272;14.200;2023-08-07T03:30:01;0.43;;;0.30;;
81176;SDS011;70786;48.272;14.200;2023-08-07T03:32:28;0.75;;;0.22;;
81176;SDS011;70786;48.272;14.200;2023-08-07T03:34:54;0.85;;;0.30;;
81176;SDS011;70786;48.272;14.200;2023-08-07T03:37:21;0.57;;;0.30;;
81176;SDS011;70786;48.272;14.200;2023-08-07T03:39:51;0.52;;;0.20;;
81176;SDS011;70786;48.272;14.200;2023-08-07T03:42:20;0.90;;;0.30;;
81176;SDS011;70786;48.272;14.200;2023-08-07T03:44:46;0.80;;;0.30;;
81176;SDS011;70786;48.272;14.200;2023-08-07T03:47:13;0.50;;;0.30;;
81176;SDS011;70786;48.272;14.200;2023-08-07T03:49:40;0.35;;;0.30;;
81176;SDS011;70786;48.272;14.200;2023-08-07T03:52:06;0.80;;;0.45;;
81176;SDS011;70786;48.272;14.200;2023-08-07T03:54:35;0.22;;;0.13;;
81176;SDS011;70786;48.272;14.200;2023-08-07T03:57:07;0.40;;;0.30;;
81176;SDS011;70786;48.272;14.200;2023-08-07T03:59:34;1.02;;;0.30;;
81176;SDS011;70786;48.272;14.200;2023-08-07T04:02:01;1.42;;;0.30;;
81176;SDS011;70786;48.272;14.200;2023-08-07T04:04:28;0.55;;;0.50;;
81176;SDS011;70786;48.272;14.200;2023-08-07T04:06:55;0.65;;;0.40;;
81176;SDS011;70786;48.272;14.200;2023-08-07T04:09:21;0.93;;;0.35;;
81176;SDS011;70786;48.272;14.200;2023-08-07T04:11:47;0.47;;;0.30;;
81176;SDS011;70786;48.272;14.200;2023-08-07T04:14:14;0.40;;;0.30;;
81176;SDS011;70786;48.272;14.200;2023-08-07T04:16:40;0.93;;;0.35;;
81176;SDS011;70786;48.272;14.200;2023-08-07T04:19:09;0.80;;;0.40;;
81176;SDS011;70786;48.272;14.200;2023-08-07T04:21:38;0.40;;;0.20;;
81176;SDS011;70786;48.272;14.200;2023-08-07T04:24:07;0.95;;;0.20;;
81176;SDS011;70786;48.272;14.200;2023-08-07T04:26:38;0.43;;;0.28;;
81176;SDS011;70786;48.272;14.200;2023-08-07T04:29:05;0.40;;;0.30;;
81176;SDS011;70786;48.272;14.200;2023-08-07T04:31:33;0.55;;;0.20;;
81176;SDS011;70786;48.272;14.200;2023-08-07T04:33:59;0.63;;;0.30;;
81176;SDS011;70786;48.272;14.200;2023-08-07T04:36:29;0.50;;;0.30;;
81176;SDS011;70786;48.272;14.200;2023-08-07T04:39:01;0.73;;;0.30;;
81176;SDS011;70786;48.272;14.200;2023-08-07T04:41:28;0.75;;;0.30;;
81176;SDS011;70786;48.272;14.200;2023-08-07T04:44:01;0.47;;;0.30;;
81176;SDS011;70786;48.272;14.200;2023-08-07T04:46:30;0.68;;;0.20;;
81176;SDS011;70786;48.272;14.200;2023-08-07T04:48:58;0.20;;;0.20;;
81176;SDS011;70786;48.272;14.200;2023-08-07T04:51:26;0.28;;;0.13;;
81176;SDS011;70786;48.272;14.200;2023-08-07T04:53:54;0.22;;;0.10;;
81176;SDS011;70786;48.272;14.200;2023-08-07T04:56:25;0.40;;;0.20;;
81176;SDS011;70786;48.272;14.200;2023-08-07T04:58:54;0.35;;;0.20;;
81176;SDS011;70786;48.272;14.200;2023-08-07T05:01:20;0.40;;;0.25;;
81176;SDS011;70786;48.272;14.200;2023-08-07T05:03:47;0.20;;;0.17;;
81176;SDS011;70786;48.272;14.200;2023-08-07T05:06:23;0.50;;;0.28;;
81176;SDS011;70786;48.272;14.200;2023-08-07T05:08:50;0.90;;;0.30;;
81176;SDS011;70786;48.272;14.200;2023-08-07T05:11:21;0.10;;;0.10;;
81176;SDS011;70786;48.272;14.200;2023-08-07T05:13:49;0.25;;;0.20;;
81176;SDS011;70786;48.272;14.200;2023-08-07T05:16:16;0.25;;;0.22;;
81176;SDS011;70786;48.272;14.200;2023-08-07T05:18:44;0.88;;;0.40;;
81176;SDS011;70786;48.272;14.200;2023-08-07T05:21:16;0.35;;;0.30;;
81176;SDS011;70786;48.272;14.200;2023-08-07T05:23:45;0.80;;;0.28;;
81176;SDS011;70786;48.272;14.200;2023-08-07T05:26:13;0.50;;;0.40;;
81176;SDS011;70786;48.272;14.200;2023-08-07T05:28:49;2.00;;;0.20;;
81176;SDS011;70786;48.272;14.200;2023-08-07T05:31:15;0.25;;;0.20;;
81176;SDS011;70786;48.272;14.200;2023-08-07T05:33:44;1.08;;;0.50;;
81176;SDS011;70786;48.272;14.200;2023-08-07T05:36:11;0.45;;;0.38;;
81176;SDS011;70786;48.272;14.200;2023-08-07T05:38:37;0.32;;;0.20;;
81176;SDS011;70786;48.272;14.200;2023-08-07T05:41:06;0.68;;;0.38;;
81176;SDS011;70786;48.272;14.200;2023-08-07T05:43:31;0.40;;;0.28;;
81176;SDS011;70786;48.272;14.200;2023-08-07T05:45:57;0.55;;;0.30;;
81176;SDS011;70786;48.272;14.200;2023-08-07T05:48:23;0.68;;;0.30;;
81176;SDS011;70786;48.272;14.200;2023-08-07T05:50:50;0.85;;;0.57;;
81176;SDS011;70786;48.272;14.200;2023-08-07T05:53:20;0.98;;;0.40;;
81176;SDS011;70786;48.272;14.200;2023-08-07T05:55:50;1.67;;;0.50;;
81176;SDS011;70786;48.272;14.200;2023-08-07T05:58:16;0.45;;;0.28;;
81176;SDS011;70786;48.272;14.200;2023-08-07T06:00:41;0.43;;;0.25;;
81176;SDS011;70786;48.272;14.200;2023-08-07T06:03:08;0.98;;;0.50;;
81176;SDS011;70786;48.272;14.200;2023-08-07T06:05:34;0.75;;;0.45;;
81176;SDS011;70786;48.272;14.200;2023-08-07T06:08:00;0.85;;;0.52;;
81176;SDS011;70786;48.272;14.200;2023-08-07T06:10:26;1.30;;;0.50;;
81176;SDS011;70786;48.272;14.200;2023-08-07T06:12:53;0.90;;;0.50;;
81176;SDS011;70786;48.272;14.200;2023-08-07T06:15:19;0.68;;;0.25;;
81176;SDS011;70786;48.272;14.200;2023-08-07T06:17:45;0.45;;;0.30;;
81176;SDS011;70786;48.272;14.200;2023-08-07T06:20:11;2.03;;;0.40;;
81176;SDS011;70786;48.272;14.200;2023-08-07T06:22:40;0.70;;;0.30;;
81176;SDS011;70786;48.272;14.200;2023-08-07T06:25:08;1.63;;;0.85;;
81176;SDS011;70786;48.272;14.200;2023-08-07T06:27:34;0.88;;;0.50;;
81176;SDS011;70786;48.272;14.200;2023-08-07T06:30:00;2.13;;;0.50;;
81176;SDS011;70786;48.272;14.200;2023-08-07T06:32:28;2.90;;;0.52;;
81176;SDS011;70786;48.272;14.200;2023-08-07T06:35:02;1.15;;;0.38;;
81176;SDS011;70786;48.272;14.200;2023-08-07T06:37:30;0.93;;;0.40;;
81176;SDS011;70786;48.272;14.200;2023-08-07T06:39:56;1.48;;;0.40;;
81176;SDS011;70786;48.272;14.200;2023-08-07T06:42:22;0.70;;;0.30;;
81176;SDS011;70786;48.272;14.200;2023-08-07T06:44:48;0.98;;;0.50;;
81176;SDS011;70786;48.272;14.200;2023-08-07T06:47:14;1.45;;;0.47;;
81176;SDS011;70786;48.272;14.200;2023-08-07T06:49:40;1.42;;;0.45;;
81176;SDS011;70786;48.272;14.200;2023-08-07T06:52:06;1.48;;;0.77;;
81176;SDS011;70786;48.272;14.200;2023-08-07T06:54:32;1.40;;;0.50;;
81176;SDS011;70786;48.272;14.200;2023-08-07T06:56:58;0.43;;;0.30;;
81176;SDS011;70786;48.272;14.200;2023-08-07T06:59:24;1.27;;;0.65;;
81176;SDS011;70786;48.272;14.200;2023-08-07T07:01:51;1.40;;;0.60;;
81176;SDS011;70786;48.272;14.200;2023-08-07T07:04:17;0.77;;;0.43;;
81176;SDS011;70786;48.272;14.200;2023-08-07T07:06:43;1.30;;;0.50;;
81176;SDS011;70786;48.272;14.200;2023-08-07T07:09:09;0.68;;;0.47;;
81176;SDS011;70786;48.272;14.200;2023-08-07T07:11:35;1.10;;;0.70;;
81176;SDS011;70786;48.272;14.200;2023-08-07T07:14:01;1.63;;;0.55;;
81176;SDS011;70786;48.272;14.200;2023-08-07T07:16:27;1.38;;;0.80;;
81176;SDS011;70786;48.272;14.200;2023-08-07T07:18:53;1.75;;;0.90;;
81176;SDS011;70786;48.272;14.200;2023-08-07T07:21:21;1.17;;;0.50;;
81176;SDS011;70786;48.272;14.200;2023-08-07T07:23:47;1.05;;;0.50;;
81176;SDS011;70786;48.272;14.200;2023-08-07T07:26:13;1.38;;;0.65;;
81176;SDS011;70786;48.272;14.200;2023-08-07T07:28:39;1.05;;;0.63;;
81176;SDS011;70786;48.272;14.200;2023-08-07T07:31:05;2.25;;;0.70;;
81176;SDS011;70786;48.272;14.200;2023-08-07T07:33:34;1.23;;;0.60;;
81176;SDS011;70786;48.272;14.200;2023-08-07T07:36:02;0.70;;;0.50;;
81176;SDS011;70786;48.272;14.200;2023-08-07T07:38:28;0.93;;;0.47;;
81176;SDS011;70786;48.272;14.200;2023-08-07T07:40:54;1.05;;;0.60;;
81176;SDS011;70786;48.272;14.200;2023-08-07T07:43:22;1.45;;;0.70;;
81176;SDS011;70786;48.272;14.200;2023-08-07T07:45:49;2.15;;;0.73;;
81176;SDS011;70786;48.272;14.200;2023-08-07T07:48:15;0.80;;;0.60;;
81176;SDS011;70786;48.272;14.200;2023-08-07T07:50:41;3.15;;;0.93;;
81176;SDS011;70786;48.272;14.200;2023-08-07T07:53:07;2.33;;;0.77;;
81176;SDS011;70786;48.272;14.200;2023-08-07T07:55:33;1.95;;;0.70;;
81176;SDS011;70786;48.272;14.200;2023-08-07T07:57:59;0.95;;;0.40;;
81176;SDS011;70786;48.272;14.200;2023-08-07T08:00:26;2.97;;;0.90;;
81176;SDS011;70786;48.272;14.200;2023-08-07T08:02:52;1.90;;;1.00;;
81176;SDS011;70786;48.272;14.200;2023-08-07T08:05:19;1.60;;;0.52;;
81176;SDS011;70786;48.272;14.200;2023-08-07T08:07:45;1.92;;;0.80;;
81176;SDS011;70786;48.272;14.200;2023-08-07T08:10:11;0.82;;;0.55;;
81176;SDS011;70786;48.272;14.200;2023-08-07T08:12:38;1.55;;;0.80;;
81176;SDS011;70786;48.272;14.200;2023-08-07T08:15:05;1.50;;;0.70;;
81176;SDS011;70786;48.272;14.200;2023-08-07T08:17:31;1.38;;;0.60;;
81176;SDS011;70786;48.272;14.200;2023-08-07T08:19:57;0.80;;;0.40;;
81176;SDS011;70786;48.272;14.200;2023-08-07T08:22:23;1.80;;;0.90;;
81176;SDS011;70786;48.272;14.200;2023-08-07T08:24:49;1.77;;;0.80;;
81176;SDS011;70786;48.272;14.200;2023-08-07T08:27:15;3.03;;;0.88;;
81176;SDS011;70786;48.272;14.200;2023-08-07T08:29:43;1.40;;;0.73;;
81176;SDS011;70786;48.272;14.200;2023-08-07T08:32:10;3.22;;;0.90;;
81176;SDS011;70786;48.272;14.200;2023-08-07T08:34:36;1.60;;;0.70;;
81176;SDS011;70786;48.272;14.200;2023-08-07T08:37:02;1.55;;;0.60;;
81176;SDS011;70786;48.272;14.200;2023-08-07T08:39:31;1.52;;;0.90;;
81176;SDS011;70786;48.272;14.200;2023-08-07T08:41:57;1.50;;;0.82;;
81176;SDS011;70786;48.272;14.200;2023-08-07T08:44:24;1.23;;;0.73;;
81176;SDS011;70786;48.272;14.200;2023-08-07T08:46:51;3.13;;;1.00;;
81176;SDS011;70786;48.272;14.200;2023-08-07T08:49:23;1.98;;;1.00;;
81176;SDS011;70786;48.272;14.200;2023-08-07T08:51:56;1.77;;;0.95;;
81176;SDS011;70786;48.272;14.200;2023-08-07T08:54:23;0.98;;;0.57;;
81176;SDS011;70786;48.272;14.200;2023-08-07T08:56:49;1.25;;;0.60;;
81176;SDS011;70786;48.272;14.200;2023-08-07T08:59:16;1.30;;;0.60;;
81176;SDS011;70786;48.272;14.200;2023-08-07T09:01:45;1.48;;;0.55;;
81176;SDS011;70786;48.272;14.200;2023-08-07T09:04:12;1.75;;;0.77;;
81176;SDS011;70786;48.272;14.200;2023-08-07T09:06:39;1.63;;;0.80;;
81176;SDS011;70786;48.272;14.200;2023-08-07T09:09:05;1.65;;;0.82;;
81176;SDS011;70786;48.272;14.200;2023-08-07T09:11:34;2.00;;;0.77;;
81176;SDS011;70786;48.272;14.200;2023-08-07T09:14:01;1.65;;;0.80;;
81176;SDS011;70786;48.272;14.200;2023-08-07T09:16:28;1.25;;;0.63;;
81176;SDS011;70786;48.272;14.200;2023-08-07T09:18:56;3.03;;;1.20;;
81176;SDS011;70786;48.272;14.200;2023-08-07T09:21:22;2.38;;;0.80;;
81176;SDS011;70786;48.272;14.200;2023-08-07T09:23:48;2.10;;;0.70;;
81176;SDS011;70786;48.272;14.200;2023-08-07T09:26:15;2.05;;;0.77;;
81176;SDS011;70786;48.272;14.200;2023-08-07T09:28:48;1.30;;;0.80;;
81176;SDS011;70786;48.272;14.200;2023-08-07T09:31:17;1.73;;;0.90;;
81176;SDS011;70786;48.272;14.200;2023-08-07T09:33:43;2.33;;;1.00;;
81176;SDS011;70786;48.272;14.200;2023-08-07T09:36:13;3.08;;;0.80;;
81176;SDS011;70786;48.272;14.200;2023-08-07T09:38:39;1.38;;;0.80;;
81176;SDS011;70786;48.272;14.200;2023-08-07T09:41:05;1.02;;;0.77;;
81176;SDS011;70786;48.272;14.200;2023-08-07T09:43:34;2.40;;;0.95;;
81176;SDS011;70786;48.272;14.200;2023-08-07T09:46:05;1.65;;;0.80;;
81176;SDS011;70786;48.272;14.200;2023-08-07T09:48:32;1.17;;;0.68;;
81176;SDS011;70786;48.272;14.200;2023-08-07T09:51:05;2.00;;;0.80;;
81176;SDS011;70786;48.272;14.200;2023-08-07T09:53:31;1.55;;;0.80;;
81176;SDS011;70786;48.272;14.200;2023-08-07T09:55:58;2.55;;;1.20;;
81176;SDS011;70786;48.272;14.200;2023-08-07T09:58:24;1.25;;;0.90;;
81176;SDS011;70786;48.272;14.200;2023-08-07T10:00:50;0.70;;;0.55;;
81176;SDS011;70786;48.272;14.200;2023-08-07T10:03:25;1.40;;;0.70;;
81176;SDS011;70786;48.272;14.200;2023-08-07T10:05:51;1.58;;;0.85;;
81176;SDS011;70786;48.272;14.200;2023-08-07T10:08:17;1.67;;;0.80;;
81176;SDS011;70786;48.272;14.200;2023-08-07T10:10:44;1.42;;;0.90;;
81176;SDS011;70786;48.272;14.200;2023-08-07T10:13:12;2.15;;;0.90;;
81176;SDS011;70786;48.272;14.200;2023-08-07T10:15:39;2.28;;;0.55;;
81176;SDS011;70786;48.272;14.200;2023-08-07T10:18:08;2.22;;;0.80;;
81176;SDS011;70786;48.272;14.200;2023-08-07T10:20:35;1.98;;;0.82;;
81176;SDS011;70786;48.272;14.200;2023-08-07T10:23:09;1.55;;;0.90;;
81176;SDS011;70786;48.272;14.200;2023-08-07T10:25:40;1.48;;;0.95;;
81176;SDS011;70786;48.272;14.200;2023-08-07T10:28:09;1.85;;;1.00;;
81176;SDS011;70786;48.272;14.200;2023-08-07T10:33:35;1.65;;;0.90;;
81176;SDS011;70786;48.272;14.200;2023-08-07T10:36:07;1.73;;;0.95;;
81176;SDS011;70786;48.272;14.200;2023-08-07T10:38:34;1.45;;;0.70;;
81176;SDS011;70786;48.272;14.200;2023-08-07T10:41:06;2.13;;;0.82;;
81176;SDS011;70786;48.272;14.200;2023-08-07T10:43:38;2.70;;;1.20;;
81176;SDS011;70786;48.272;14.200;2023-08-07T10:48:38;1.20;;;0.55;;
81176;SDS011;70786;48.272;14.200;2023-08-07T10:51:05;1.30;;;0.73;;
81176;SDS011;70786;48.272;14.200;2023-08-07T10:53:36;1.88;;;0.77;;
81176;SDS011;70786;48.272;14.200;2023-08-07T10:56:08;1.83;;;0.70;;
81176;SDS011;70786;48.272;14.200;2023-08-07T10:58:39;2.20;;;0.90;;
81176;SDS011;70786;48.272;14.200;2023-08-07T11:03:56;1.83;;;0.90;;
81176;SDS011;70786;48.272;14.200;2023-08-07T11:06:30;2.42;;;0.95;;
81176;SDS011;70786;48.272;14.200;2023-08-07T11:08:57;1.27;;;0.80;;
81176;SDS011;70786;48.272;14.200;2023-08-07T11:11:24;1.13;;;0.70;;
81176;SDS011;70786;48.272;14.200;2023-08-07T11:13:52;2.70;;;0.93;;
81176;SDS011;70786;48.272;14.200;2023-08-07T11:16:18;2.75;;;1.05;;
81176;SDS011;70786;48.272;14.200;2023-08-07T11:18:46;1.13;;;0.80;;
81176;SDS011;70786;48.272;14.200;2023-08-07T11:21:13;2.13;;;0.80;;
81176;SDS011;70786;48.272;14.200;2023-08-07T11:23:39;1.00;;;0.75;;
81176;SDS011;70786;48.272;14.200;2023-08-07T11:26:06;1.80;;;0.77;;
81176;SDS011;70786;48.272;14.200;2023-08-07T11:28:33;3.78;;;1.15;;
81176;SDS011;70786;48.272;14.200;2023-08-07T11:31:02;1.92;;;1.02;;
81176;SDS011;70786;48.272;14.200;2023-08-07T11:33:29;1.95;;;1.17;;
81176;SDS011;70786;48.272;14.200;2023-08-07T11:35:57;1.50;;;0.98;;
81176;SDS011;70786;48.272;14.200;2023-08-07T11:38:43;3.03;;;0.70;;
81176;SDS011;70786;48.272;14.200;2023-08-07T11:41:11;1.92;;;1.10;;
81176;SDS011;70786;48.272;14.200;2023-08-07T11:43:39;2.40;;;1.02;;
81176;SDS011;70786;48.272;14.200;2023-08-07T11:46:07;1.92;;;0.90;;
81176;SDS011;70786;48.272;14.200;2023-08-07T11:48:35;1.00;;;0.85;;
81176;SDS011;70786;48.272;14.200;2023-08-07T11:51:02;1.45;;;0.90;;
81176;SDS011;70786;48.272;14.200;2023-08-07T11:53:30;1.05;;;0.95;;
81176;SDS011;70786;48.272;14.200;2023-08-07T11:56:05;2.45;;;0.90;;
81176;SDS011;70786;48.272;14.200;2023-08-07T11:58:36;1.17;;;0.80;;
81176;SDS011;70786;48.272;14.200;2023-08-07T12:01:04;1.80;;;0.70;;
81176;SDS011;70786;48.272;14.200;2023-08-07T12:03:32;1.35;;;0.90;;
81176;SDS011;70786;48.272;14.200;2023-08-07T12:06:02;1.30;;;0.75;;
81176;SDS011;70786;48.272;14.200;2023-08-07T12:08:35;1.48;;;0.82;;
81176;SDS011;70786;48.272;14.200;2023-08-07T12:11:03;2.42;;;0.90;;
81176;SDS011;70786;48.272;14.200;2023-08-07T12:13:31;2.00;;;0.93;;
81176;SDS011;70786;48.272;14.200;2023-08-07T12:16:01;1.00;;;0.63;;
81176;SDS011;70786;48.272;14.200;2023-08-07T12:18:29;1.33;;;0.80;;
81176;SDS011;70786;48.272;14.200;2023-08-07T12:20:57;3.08;;;1.25;;
81176;SDS011;70786;48.272;14.200;2023-08-07T12:23:25;4.55;;;1.42;;
81176;SDS011;70786;48.272;14.200;2023-08-07T12:25:51;2.50;;;1.30;;
81176;SDS011;70786;48.272;14.200;2023-08-07T12:28:18;2.40;;;0.93;;
81176;SDS011;70786;48.272;14.200;2023-08-07T12:30:47;3.80;;;1.33;;
81176;SDS011;70786;48.272;14.200;2023-08-07T12:33:15;1.30;;;1.08;;
81176;SDS011;70786;48.272;14.200;2023-08-07T12:35:41;1.80;;;1.10;;
81176;SDS011;70786;48.272;14.200;2023-08-07T12:38:07;1.95;;;1.02;;
81176;SDS011;70786;48.272;14.200;2023-08-07T12:40:34;1.00;;;0.65;;
81176;SDS011;70786;48.272;14.200;2023-08-07T12:43:02;1.70;;;1.20;;
81176;SDS011;70786;48.272;14.200;2023-08-07T12:45:29;2.45;;;1.52;;
81176;SDS011;70786;48.272;14.200;2023-08-07T12:47:58;2.20;;;1.23;;
81176;SDS011;70786;48.272;14.200;2023-08-07T12:50:25;1.65;;;0.93;;
81176;SDS011;70786;48.272;14.200;2023-08-07T12:52:51;2.92;;;1.00;;
81176;SDS011;70786;48.272;14.200;2023-08-07T12:55:17;3.80;;;0.90;;
81176;SDS011;70786;48.272;14.200;2023-08-07T12:57:43;2.13;;;1.20;;
81176;SDS011;70786;48.272;14.200;2023-08-07T13:00:11;1.40;;;0.73;;
81176;SDS011;70786;48.272;14.200;2023-08-07T13:02:40;2.35;;;1.02;;
81176;SDS011;70786;48.272;14.200;2023-08-07T13:05:13;2.65;;;1.30;;
81176;SDS011;70786;48.272;14.200;2023-08-07T13:07:40;1.50;;;1.27;;
81176;SDS011;70786;48.272;14.200;2023-08-07T13:10:07;1.42;;;1.10;;
81176;SDS011;70786;48.272;14.200;2023-08-07T13:12:40;2.70;;;1.77;;
81176;SDS011;70786;48.272;14.200;2023-08-07T13:15:08;2.00;;;1.30;;
81176;SDS011;70786;48.272;14.200;2023-08-07T13:17:35;2.40;;;1.30;;
81176;SDS011;70786;48.272;14.200;2023-08-07T13:20:02;2.70;;;1.60;;
81176;SDS011;70786;48.272;14.200;2023-08-07T13:22:34;3.35;;;2.17;;
81176;SDS011;70786;48.272;14.200;2023-08-07T13:25:03;2.20;;;1.23;;
81176;SDS011;70786;48.272;14.200;2023-08-07T13:27:31;2.20;;;1.40;;
81176;SDS011;70786;48.272;14.200;2023-08-07T13:29:57;2.00;;;1.13;;
81176;SDS011;70786;48.272;14.200;2023-08-07T13:32:24;2.67;;;1.33;;
81176;SDS011;70786;48.272;14.200;2023-08-07T13:34:51;2.17;;;1.20;;
81176;SDS011;70786;48.272;14.200;2023-08-07T13:37:17;2.17;;;1.55;;
81176;SDS011;70786;48.272;14.200;2023-08-07T13:39:43;3.33;;;1.30;;
81176;SDS011;70786;48.272;14.200;2023-08-07T13:42:09;2.75;;;1.15;;
81176;SDS011;70786;48.272;14.200;2023-08-07T13:44:39;2.67;;;1.20;;
81176;SDS011;70786;48.272;14.200;2023-08-07T13:47:05;2.67;;;1.20;;
81176;SDS011;70786;48.272;14.200;2023-08-07T13:49:32;4.80;;;1.92;;
81176;SDS011;70786;48.272;14.200;2023-08-07T13:51:58;2.30;;;1.10;;
81176;SDS011;70786;48.272;14.200;2023-08-07T13:54:24;1.42;;;0.95;;
81176;SDS011;70786;48.272;14.200;2023-08-07T13:56:50;2.88;;;1.17;;
81176;SDS011;70786;48.272;14.200;2023-08-07T13:59:16;4.10;;;1.55;;
81176;SDS011;70786;48.272;14.200;2023-08-07T14:01:53;3.42;;;1.52;;
81176;SDS011;70786;48.272;14.200;2023-08-07T14:04:20;5.72;;;1.50;;
81176;SDS011;70786;48.272;14.200;2023-08-07T14:06:46;4.43;;;1.70;;
81176;SDS011;70786;48.272;14.200;2023-08-07T14:09:12;2.35;;;1.27;;
81176;SDS011;70786;48.272;14.200;2023-08-07T14:11:39;2.80;;;1.50;;
81176;SDS011;70786;48.272;14.200;2023-08-07T14:14:05;2.15;;;1.23;;
81176;SDS011;70786;48.272;14.200;2023-08-07T14:16:31;3.05;;;1.13;;
81176;SDS011;70786;48.272;14.200;2023-08-07T14:18:57;2.40;;;0.90;;
81176;SDS011;70786;48.272;14.200;2023-08-07T14:21:23;2.25;;;1.00;;
81176;SDS011;70786;48.272;14.200;2023-08-07T14:23:50;2.00;;;1.10;;
81176;SDS011;70786;48.272;14.200;2023-08-07T14:26:16;2.50;;;1.23;;
81176;SDS011;70786;48.272;14.200;2023-08-07T14:28:44;3.47;;;0.90;;
81176;SDS011;70786;48.272;14.200;2023-08-07T14:31:10;3.03;;;1.65;;
81176;SDS011;70786;48.272;14.200;2023-08-07T14:33:36;3.70;;;1.00;;
81176;SDS011;70786;48.272;14.200;2023-08-07T14:36:03;4.55;;;1.00;;
81176;SDS011;70786;48.272;14.200;2023-08-07T14:38:29;1.77;;;0.93;;
81176;SDS011;70786;48.272;14.200;2023-08-07T14:40:55;1.10;;;0.80;;
81176;SDS011;70786;48.272;14.200;2023-08-07T14:43:25;3.15;;;1.10;;
81176;SDS011;70786;48.272;14.200;2023-08-07T14:45:55;1.92;;;1.42;;
81176;SDS011;70786;48.272;14.200;2023-08-07T14:48:21;3.75;;;0.82;;
81176;SDS011;70786;48.272;14.200;2023-08-07T14:50:47;1.15;;;1.00;;
81176;SDS011;70786;48.272;14.200;2023-08-07T14:53:13;2.80;;;1.13;;